sensor_id;sensor_type;location;lat;lon;timestamp;pressure;altitude;pressure_sealevel;temperature;humidity
68873;BME280;55907;50.806;12.882;2023-09-19T00:00:43;966.7;;;17.3;89.6
68873;BME280;55907;50.806;12.882;2023-09-19T00:03:44;966.7;;;17.3;88.9
68873;BME280;55907;50.806;12.882;2023-09-19T00:06:45;966.8;;;17.3;89.3
68873;BME280;55907;50.806;12.882;2023-09-19T00:09:47;966.9;;;17.4;89.0
68873;BME280;55907;50.806;12.882;2023-09-19T00:12:48;966.9;;;17.4;89.4
68873;BME280;55907;50.806;12.882;2023-09-19T00:15:49;966.9;;;17.4;89.5
68873;BME280;55907;50.806;12.882;2023-09-19T00:18:51;966.8;;;17.4;89.0
68873;BME280;55907;50.806;12.882;2023-09-19T00:21:52;966.7;;;17.4;88.3
68873;BME280;55907;50.806;12.882;2023-09-19T00:24:54;966.6;;;17.5;87.6
68873;BME280;55907;50.806;12.882;2023-09-19T00:27:55;966.7;;;17.5;87.1
68873;BME280;55907;50.806;12.882;2023-09-19T00:30:57;966.7;;;17.5;86.5
68873;BME280;55907;50.806;12.882;2023-09-19T00:33:58;966.7;;;17.5;85.8
68873;BME280;55907;50.806;12.882;2023-09-19T00:37:00;966.7;;;17.6;84.8
68873;BME280;55907;50.806;12.882;2023-09-19T00:43:03;966.9;;;17.6;84.4
68873;BME280;55907;50.806;12.882;2023-09-19T00:46:04;966.9;;;17.7;83.6
68873;BME280;55907;50.806;12.882;2023-09-19T00:49:07;966.9;;;17.7;82.9
68873;BME280;55907;50.806;12.882;2023-09-19T00:52:07;966.9;;;17.8;82.6
68873;BME280;55907;50.806;12.882;2023-09-19T00:55:10;966.9;;;17.7;82.3
68873;BME280;55907;50.806;12.882;2023-09-19T00:58:10;966.8;;;17.8;82.1
68873;BME280;55907;50.806;12.882;2023-09-19T01:01:12;966.8;;;17.7;81.8
68873;BME280;55907;50.806;12.882;2023-09-19T01:04:13;966.8;;;17.7;81.7
68873;BME280;55907;50.806;12.882;2023-09-19T01:07:14;966.9;;;17.7;81.8
68873;BME280;55907;50.806;12.882;2023-09-19T01:10:18;966.7;;;17.7;81.7
68873;BME280;55907;50.806;12.882;2023-09-19T01:13:22;966.8;;;17.7;81.7
68873;BME280;55907;50.806;12.882;2023-09-19T01:16:26;966.9;;;17.7;81.3
68873;BME280;55907;50.806;12.882;2023-09-19T01:19:42;966.9;;;17.7;81.6
68873;BME280;55907;50.806;12.882;2023-09-19T01:22:26;966.9;;;17.7;81.7
68873;BME280;55907;50.806;12.882;2023-09-19T01:25:38;967.0;;;17.6;81.7
68873;BME280;55907;50.806;12.882;2023-09-19T01:28:30;967.1;;;17.6;81.8
68873;BME280;55907;50.806;12.882;2023-09-19T01:31:28;967.1;;;17.6;81.6
68873;BME280;55907;50.806;12.882;2023-09-19T01:34:27;967.1;;;17.6;81.4
68873;BME280;55907;50.806;12.882;2023-09-19T01:37:29;967.0;;;17.6;81.8
68873;BME280;55907;50.806;12.882;2023-09-19T01:40:30;966.9;;;17.6;82.2
68873;BME280;55907;50.806;12.882;2023-09-19T01:43:36;967.0;;;17.5;82.2
68873;BME280;55907;50.806;12.882;2023-09-19T01:46:34;967.1;;;17.5;82.4
68873;BME280;55907;50.806;12.882;2023-09-19T01:49:39;967.1;;;17.5;82.2
68873;BME280;55907;50.806;12.882;2023-09-19T01:52:40;967.0;;;17.5;83.0
68873;BME280;55907;50.806;12.882;2023-09-19T01:55:42;967.1;;;17.5;83.1
68873;BME280;55907;50.806;12.882;2023-09-19T01:58:42;967.1;;;17.5;83.1
68873;BME280;55907;50.806;12.882;2023-09-19T02:01:42;967.2;;;17.5;83.3
68873;BME280;55907;50.806;12.882;2023-09-19T02:04:42;967.1;;;17.4;83.0
68873;BME280;55907;50.806;12.882;2023-09-19T02:07:43;967.2;;;17.4;83.7
68873;BME280;55907;50.806;12.882;2023-09-19T02:10:45;967.2;;;17.4;83.8
68873;BME280;55907;50.806;12.882;2023-09-19T02:13:46;967.2;;;17.4;84.1
68873;BME280;55907;50.806;12.882;2023-09-19T02:16:48;967.2;;;17.4;84.1
68873;BME280;55907;50.806;12.882;2023-09-19T02:19:49;967.3;;;17.3;84.4
68873;BME280;55907;50.806;12.882;2023-09-19T02:22:51;967.3;;;17.3;84.5
68873;BME280;55907;50.806;12.882;2023-09-19T02:25:52;967.3;;;17.3;84.8
68873;BME280;55907;50.806;12.882;2023-09-19T02:28:54;967.4;;;17.2;84.7
68873;BME280;55907;50.806;12.882;2023-09-19T02:31:55;967.4;;;17.2;84.6
68873;BME280;55907;50.806;12.882;2023-09-19T02:34:57;967.4;;;17.2;84.8
68873;BME280;55907;50.806;12.882;2023-09-19T02:37:58;967.4;;;17.2;85.0
68873;BME280;55907;50.806;12.882;2023-09-19T02:40:59;967.5;;;17.2;84.9
68873;BME280;55907;50.806;12.882;2023-09-19T02:44:01;967.5;;;17.1;84.8
68873;BME280;55907;50.806;12.882;2023-09-19T02:47:03;967.6;;;17.1;85.3
68873;BME280;55907;50.806;12.882;2023-09-19T02:50:04;967.5;;;17.1;85.5
68873;BME280;55907;50.806;12.882;2023-09-19T02:53:05;967.7;;;17.0;85.7
68873;BME280;55907;50.806;12.882;2023-09-19T02:56:07;967.7;;;17.0;85.7
68873;BME280;55907;50.806;12.882;2023-09-19T02:59:09;967.7;;;17.0;86.0
68873;BME280;55907;50.806;12.882;2023-09-19T03:02:10;967.7;;;17.0;85.9
68873;BME280;55907;50.806;12.882;2023-09-19T03:05:11;967.8;;;17.0;86.3
68873;BME280;55907;50.806;12.882;2023-09-19T03:08:13;967.8;;;16.9;86.2
68873;BME280;55907;50.806;12.882;2023-09-19T03:11:14;967.9;;;17.0;86.3
68873;BME280;55907;50.806;12.882;2023-09-19T03:14:16;967.9;;;17.0;86.5
68873;BME280;55907;50.806;12.882;2023-09-19T03:17:17;967.9;;;16.9;86.5
68873;BME280;55907;50.806;12.882;2023-09-19T03:20:19;967.9;;;16.9;86.3
68873;BME280;55907;50.806;12.882;2023-09-19T03:23:20;967.9;;;16.9;86.3
68873;BME280;55907;50.806;12.882;2023-09-19T03:26:21;967.9;;;16.8;86.5
68873;BME280;55907;50.806;12.882;2023-09-19T03:29:23;968.0;;;16.8;86.0
68873;BME280;55907;50.806;12.882;2023-09-19T03:32:24;968.0;;;16.8;85.5
68873;BME280;55907;50.806;12.882;2023-09-19T03:35:26;968.1;;;16.8;86.0
68873;BME280;55907;50.806;12.882;2023-09-19T03:38:27;968.1;;;16.8;86.0
68873;BME280;55907;50.806;12.882;2023-09-19T03:41:29;968.1;;;16.8;86.3
68873;BME280;55907;50.806;12.882;2023-09-19T03:44:30;968.0;;;16.7;86.2
68873;BME280;55907;50.806;12.882;2023-09-19T03:47:32;968.0;;;16.7;86.5
68873;BME280;55907;50.806;12.882;2023-09-19T03:50:33;968.0;;;16.7;86.3
68873;BME280;55907;50.806;12.882;2023-09-19T03:53:35;968.0;;;16.7;86.0
68873;BME280;55907;50.806;12.882;2023-09-19T03:56:36;967.9;;;16.7;86.7
68873;BME280;55907;50.806;12.882;2023-09-19T03:59:38;967.9;;;16.6;86.2
68873;BME280;55907;50.806;12.882;2023-09-19T04:02:39;967.9;;;16.6;86.2
68873;BME280;55907;50.806;12.882;2023-09-19T04:05:41;967.9;;;16.6;86.1
68873;BME280;55907;50.806;12.882;2023-09-19T04:08:43;967.9;;;16.6;86.8
68873;BME280;55907;50.806;12.882;2023-09-19T04:11:44;967.9;;;16.5;86.6
68873;BME280;55907;50.806;12.882;2023-09-19T04:14:45;967.9;;;16.6;86.7
68873;BME280;55907;50.806;12.882;2023-09-19T04:17:47;968.0;;;16.6;86.7
68873;BME280;55907;50.806;12.882;2023-09-19T04:20:48;968.1;;;16.6;86.6
68873;BME280;55907;50.806;12.882;2023-09-19T04:23:50;968.1;;;16.6;86.4
68873;BME280;55907;50.806;12.882;2023-09-19T04:26:51;968.2;;;16.6;86.3
68873;BME280;55907;50.806;12.882;2023-09-19T04:29:52;968.2;;;16.6;86.0
68873;BME280;55907;50.806;12.882;2023-09-19T04:32:54;968.2;;;16.6;85.7
68873;BME280;55907;50.806;12.882;2023-09-19T04:35:55;968.3;;;16.6;85.6
68873;BME280;55907;50.806;12.882;2023-09-19T04:38:57;968.4;;;16.6;85.7
68873;BME280;55907;50.806;12.882;2023-09-19T04:41:58;968.4;;;16.6;85.5
68873;BME280;55907;50.806;12.882;2023-09-19T04:45:00;968.4;;;16.6;85.5
68873;BME280;55907;50.806;12.882;2023-09-19T04:48:01;968.5;;;16.6;85.7
68873;BME280;55907;50.806;12.882;2023-09-19T04:51:03;968.6;;;16.6;85.3
68873;BME280;55907;50.806;12.882;2023-09-19T04:54:05;968.5;;;16.6;85.2
68873;BME280;55907;50.806;12.882;2023-09-19T04:57:06;968.5;;;16.7;85.1
68873;BME280;55907;50.806;12.882;2023-09-19T05:00:08;968.5;;;16.7;85.0
68873;BME280;55907;50.806;12.882;2023-09-19T05:03:09;968.6;;;16.8;84.4
68873;BME280;55907;50.806;12.882;2023-09-19T05:06:10;968.6;;;16.8;84.4
68873;BME280;55907;50.806;12.882;2023-09-19T05:09:11;968.7;;;16.8;84.4
68873;BME280;55907;50.806;12.882;2023-09-19T05:12:13;968.7;;;16.8;84.3
68873;BME280;55907;50.806;12.882;2023-09-19T05:15:14;968.7;;;16.8;84.3
68873;BME280;55907;50.806;12.882;2023-09-19T05:18:16;968.7;;;16.8;84.2
68873;BME280;55907;50.806;12.882;2023-09-19T05:21:17;968.7;;;16.8;84.2
68873;BME280;55907;50.806;12.882;2023-09-19T05:24:19;968.8;;;16.8;83.5
68873;BME280;55907;50.806;12.882;2023-09-19T05:27:20;968.8;;;16.8;82.9
68873;BME280;55907;50.806;12.882;2023-09-19T05:33:23;968.9;;;16.9;82.2
68873;BME280;55907;50.806;12.882;2023-09-19T05:36:25;968.9;;;17.0;81.8
68873;BME280;55907;50.806;12.882;2023-09-19T05:39:26;969.0;;;17.0;81.4
68873;BME280;55907;50.806;12.882;2023-09-19T05:42:28;969.0;;;17.0;81.4
68873;BME280;55907;50.806;12.882;2023-09-19T05:45:29;969.0;;;17.1;81.2
68873;BME280;55907;50.806;12.882;2023-09-19T05:48:31;969.0;;;17.1;81.7
68873;BME280;55907;50.806;12.882;2023-09-19T05:51:32;969.0;;;17.1;81.1
68873;BME280;55907;50.806;12.882;2023-09-19T05:54:33;969.0;;;17.1;81.4
68873;BME280;55907;50.806;12.882;2023-09-19T05:57:35;969.1;;;17.2;82.0
68873;BME280;55907;50.806;12.882;2023-09-19T06:00:36;969.1;;;17.2;81.4
68873;BME280;55907;50.806;12.882;2023-09-19T06:03:38;969.2;;;17.3;80.9
68873;BME280;55907;50.806;12.882;2023-09-19T06:06:39;969.2;;;17.3;80.9
68873;BME280;55907;50.806;12.882;2023-09-19T06:09:41;969.3;;;17.3;80.6
68873;BME280;55907;50.806;12.882;2023-09-19T06:12:42;969.3;;;17.4;80.4
68873;BME280;55907;50.806;12.882;2023-09-19T06:15:44;969.3;;;17.5;80.0
68873;BME280;55907;50.806;12.882;2023-09-19T06:18:45;969.3;;;17.5;79.9
68873;BME280;55907;50.806;12.882;2023-09-19T06:21:47;969.3;;;17.5;80.1
68873;BME280;55907;50.806;12.882;2023-09-19T06:24:48;969.4;;;17.6;79.7
68873;BME280;55907;50.806;12.882;2023-09-19T06:27:50;969.4;;;17.6;79.8
68873;BME280;55907;50.806;12.882;2023-09-19T06:30:51;969.4;;;17.7;79.6
68873;BME280;55907;50.806;12.882;2023-09-19T06:33:52;969.5;;;17.9;79.5
68873;BME280;55907;50.806;12.882;2023-09-19T06:36:54;969.4;;;17.9;78.9
68873;BME280;55907;50.806;12.882;2023-09-19T06:39:55;969.5;;;18.0;78.8
68873;BME280;55907;50.806;12.882;2023-09-19T06:42:57;969.5;;;18.0;79.3
68873;BME280;55907;50.806;12.882;2023-09-19T06:45:58;969.5;;;18.0;79.3
68873;BME280;55907;50.806;12.882;2023-09-19T06:49:00;969.5;;;18.0;78.8
68873;BME280;55907;50.806;12.882;2023-09-19T06:52:01;969.5;;;18.1;78.3
68873;BME280;55907;50.806;12.882;2023-09-19T06:55:03;969.6;;;18.2;78.0
68873;BME280;55907;50.806;12.882;2023-09-19T06:58:04;969.6;;;18.4;77.2
68873;BME280;55907;50.806;12.882;2023-09-19T07:01:05;969.6;;;18.5;77.0
68873;BME280;55907;50.806;12.882;2023-09-19T07:04:07;969.7;;;18.7;76.0
68873;BME280;55907;50.806;12.882;2023-09-19T07:07:08;969.7;;;18.9;75.4
68873;BME280;55907;50.806;12.882;2023-09-19T07:10:10;969.7;;;19.0;74.9
68873;BME280;55907;50.806;12.882;2023-09-19T07:13:11;969.7;;;19.0;74.7
68873;BME280;55907;50.806;12.882;2023-09-19T07:16:13;969.8;;;18.9;74.2
68873;BME280;55907;50.806;12.882;2023-09-19T07:19:14;969.8;;;18.9;74.3
68873;BME280;55907;50.806;12.882;2023-09-19T07:22:16;969.9;;;19.1;74.5
68873;BME280;55907;50.806;12.882;2023-09-19T07:25:17;969.9;;;19.2;74.0
68873;BME280;55907;50.806;12.882;2023-09-19T07:28:18;969.9;;;19.4;73.0
68873;BME280;55907;50.806;12.882;2023-09-19T07:31:20;970.0;;;19.5;73.3
68873;BME280;55907;50.806;12.882;2023-09-19T07:34:21;970.1;;;19.6;72.6
68873;BME280;55907;50.806;12.882;2023-09-19T07:37:23;970.1;;;19.7;72.3
68873;BME280;55907;50.806;12.882;2023-09-19T07:40:24;970.1;;;19.8;72.0
68873;BME280;55907;50.806;12.882;2023-09-19T07:43:26;970.1;;;19.9;71.1
68873;BME280;55907;50.806;12.882;2023-09-19T07:46:27;970.0;;;19.9;70.1
68873;BME280;55907;50.806;12.882;2023-09-19T07:49:29;970.1;;;19.9;69.6
68873;BME280;55907;50.806;12.882;2023-09-19T07:52:30;970.1;;;19.8;70.0
68873;BME280;55907;50.806;12.882;2023-09-19T07:55:31;970.1;;;19.8;68.3
68873;BME280;55907;50.806;12.882;2023-09-19T07:58:34;970.1;;;20.0;67.5
68873;BME280;55907;50.806;12.882;2023-09-19T08:01:34;970.1;;;20.0;67.5
68873;BME280;55907;50.806;12.882;2023-09-19T08:04:36;970.2;;;20.0;67.1
68873;BME280;55907;50.806;12.882;2023-09-19T08:07:38;970.1;;;20.1;67.7
68873;BME280;55907;50.806;12.882;2023-09-19T08:10:39;970.2;;;20.2;66.1
68873;BME280;55907;50.806;12.882;2023-09-19T08:13:41;970.2;;;20.4;65.2
68873;BME280;55907;50.806;12.882;2023-09-19T08:16:41;970.3;;;20.4;64.5
68873;BME280;55907;50.806;12.882;2023-09-19T08:19:45;970.3;;;20.5;64.3
68873;BME280;55907;50.806;12.882;2023-09-19T08:22:47;970.3;;;20.6;61.9
68873;BME280;55907;50.806;12.882;2023-09-19T08:25:46;970.4;;;20.7;61.2
68873;BME280;55907;50.806;12.882;2023-09-19T08:28:47;970.5;;;20.7;61.3
68873;BME280;55907;50.806;12.882;2023-09-19T08:31:49;970.5;;;20.5;60.6
68873;BME280;55907;50.806;12.882;2023-09-19T08:34:50;970.6;;;20.4;61.4
68873;BME280;55907;50.806;12.882;2023-09-19T08:37:51;970.5;;;20.3;61.2
68873;BME280;55907;50.806;12.882;2023-09-19T08:40:53;970.5;;;20.5;59.7
68873;BME280;55907;50.806;12.882;2023-09-19T08:43:58;970.5;;;21.1;58.7
68873;BME280;55907;50.806;12.882;2023-09-19T08:47:01;970.5;;;21.8;55.1
68873;BME280;55907;50.806;12.882;2023-09-19T08:50:01;970.6;;;22.1;53.6
68873;BME280;55907;50.806;12.882;2023-09-19T08:53:00;970.6;;;21.9;53.9
68873;BME280;55907;50.806;12.882;2023-09-19T08:56:00;970.6;;;21.9;55.1
68873;BME280;55907;50.806;12.882;2023-09-19T08:59:03;970.6;;;22.0;55.3
68873;BME280;55907;50.806;12.882;2023-09-19T09:02:03;970.6;;;22.3;54.3
68873;BME280;55907;50.806;12.882;2023-09-19T09:05:05;970.6;;;21.9;53.1
68873;BME280;55907;50.806;12.882;2023-09-19T09:08:06;970.6;;;21.9;53.7
68873;BME280;55907;50.806;12.882;2023-09-19T09:11:07;970.7;;;22.3;53.3
68873;BME280;55907;50.806;12.882;2023-09-19T09:14:09;970.7;;;22.6;52.5
68873;BME280;55907;50.806;12.882;2023-09-19T09:17:10;970.8;;;22.5;51.1
68873;BME280;55907;50.806;12.882;2023-09-19T09:20:11;970.8;;;22.4;51.5
68873;BME280;55907;50.806;12.882;2023-09-19T09:23:13;970.8;;;22.1;52.5
68873;BME280;55907;50.806;12.882;2023-09-19T09:26:14;970.9;;;21.9;53.3
68873;BME280;55907;50.806;12.882;2023-09-19T09:29:15;970.9;;;21.6;54.5
68873;BME280;55907;50.806;12.882;2023-09-19T09:32:18;971.0;;;21.4;54.8
68873;BME280;55907;50.806;12.882;2023-09-19T09:35:18;970.9;;;21.0;55.0
68873;BME280;55907;50.806;12.882;2023-09-19T09:38:21;970.9;;;20.8;55.5
68873;BME280;55907;50.806;12.882;2023-09-19T09:41:35;971.0;;;22.0;54.7
68873;BME280;55907;50.806;12.882;2023-09-19T09:44:22;971.1;;;23.5;50.9
68873;BME280;55907;50.806;12.882;2023-09-19T09:47:41;971.0;;;24.7;45.0
68873;BME280;55907;50.806;12.882;2023-09-19T09:50:26;970.9;;;25.5;44.4
68873;BME280;55907;50.806;12.882;2023-09-19T09:53:28;970.9;;;25.7;41.4
68873;BME280;55907;50.806;12.882;2023-09-19T09:56:31;970.9;;;26.3;38.2
68873;BME280;55907;50.806;12.882;2023-09-19T09:59:44;971.0;;;26.5;38.3
68873;BME280;55907;50.806;12.882;2023-09-19T10:02:35;970.9;;;26.7;39.9
68873;BME280;55907;50.806;12.882;2023-09-19T10:05:32;970.9;;;26.6;37.7
68873;BME280;55907;50.806;12.882;2023-09-19T10:08:34;970.8;;;26.5;37.3
68873;BME280;55907;50.806;12.882;2023-09-19T10:11:36;970.9;;;26.6;40.4
68873;BME280;55907;50.806;12.882;2023-09-19T10:14:38;971.0;;;26.3;37.6
68873;BME280;55907;50.806;12.882;2023-09-19T10:17:42;971.0;;;25.7;37.8
68873;BME280;55907;50.806;12.882;2023-09-19T10:20:39;971.0;;;25.3;38.0
68873;BME280;55907;50.806;12.882;2023-09-19T10:23:41;971.0;;;25.2;38.8
68873;BME280;55907;50.806;12.882;2023-09-19T10:26:42;971.0;;;25.2;38.2
68873;BME280;55907;50.806;12.882;2023-09-19T10:29:44;971.0;;;25.0;37.6
68873;BME280;55907;50.806;12.882;2023-09-19T10:32:45;971.0;;;24.6;38.7
68873;BME280;55907;50.806;12.882;2023-09-19T10:35:48;971.0;;;24.7;40.3
68873;BME280;55907;50.806;12.882;2023-09-19T10:38:49;971.0;;;24.9;38.9
68873;BME280;55907;50.806;12.882;2023-09-19T10:41:51;970.9;;;25.1;37.8
68873;BME280;55907;50.806;12.882;2023-09-19T10:44:52;971.0;;;25.4;37.5
68873;BME280;55907;50.806;12.882;2023-09-19T10:47:51;971.0;;;25.4;37.5
68873;BME280;55907;50.806;12.882;2023-09-19T10:50:57;971.0;;;25.1;38.1
68873;BME280;55907;50.806;12.882;2023-09-19T10:53:56;970.9;;;24.5;38.2
68873;BME280;55907;50.806;12.882;2023-09-19T10:56:56;971.0;;;24.4;39.9
68873;BME280;55907;50.806;12.882;2023-09-19T11:00:01;970.9;;;24.1;40.3
68873;BME280;55907;50.806;12.882;2023-09-19T11:03:16;970.9;;;24.2;39.7
68873;BME280;55907;50.806;12.882;2023-09-19T11:06:01;970.9;;;24.2;40.4
68873;BME280;55907;50.806;12.882;2023-09-19T11:09:02;970.8;;;24.1;38.7
68873;BME280;55907;50.806;12.882;2023-09-19T11:12:03;971.0;;;24.1;39.6
68873;BME280;55907;50.806;12.882;2023-09-19T11:15:05;970.9;;;24.1;39.3
68873;BME280;55907;50.806;12.882;2023-09-19T11:27:11;971.0;;;24.0;38.8
68873;BME280;55907;50.806;12.882;2023-09-19T11:30:28;971.0;;;24.1;39.4
68873;BME280;55907;50.806;12.882;2023-09-19T11:33:16;970.9;;;23.9;39.2
68873;BME280;55907;50.806;12.882;2023-09-19T11:39:25;971.0;;;23.5;39.8
68873;BME280;55907;50.806;12.882;2023-09-19T11:48:19;970.9;;;23.8;39.6
68873;BME280;55907;50.806;12.882;2023-09-19T11:51:23;971.1;;;23.6;39.0
68873;BME280;55907;50.806;12.882;2023-09-19T11:54:22;971.0;;;23.5;39.5
68873;BME280;55907;50.806;12.882;2023-09-19T12:00:25;970.9;;;23.4;40.0
68873;BME280;55907;50.806;12.882;2023-09-19T12:03:29;970.9;;;23.5;40.1
68873;BME280;55907;50.806;12.882;2023-09-19T12:06:29;970.9;;;23.8;40.2
68873;BME280;55907;50.806;12.882;2023-09-19T12:09:29;970.9;;;24.3;40.0
68873;BME280;55907;50.806;12.882;2023-09-19T12:12:31;970.9;;;24.2;36.5
68873;BME280;55907;50.806;12.882;2023-09-19T12:15:32;971.0;;;24.1;37.2
68873;BME280;55907;50.806;12.882;2023-09-19T12:18:33;971.0;;;24.0;38.2
68873;BME280;55907;50.806;12.882;2023-09-19T12:21:35;970.8;;;23.9;36.7
68873;BME280;55907;50.806;12.882;2023-09-19T12:24:36;970.9;;;23.8;37.5
68873;BME280;55907;50.806;12.882;2023-09-19T12:27:41;970.9;;;23.9;37.5
68873;BME280;55907;50.806;12.882;2023-09-19T12:30:39;970.9;;;24.0;38.0
68873;BME280;55907;50.806;12.882;2023-09-19T12:33:40;970.9;;;23.5;38.7
68873;BME280;55907;50.806;12.882;2023-09-19T12:36:42;970.9;;;23.6;39.4
68873;BME280;55907;50.806;12.882;2023-09-19T12:39:44;970.9;;;23.6;39.6
68873;BME280;55907;50.806;12.882;2023-09-19T12:42:45;970.9;;;23.3;39.8
68873;BME280;55907;50.806;12.882;2023-09-19T12:45:46;970.8;;;23.0;40.2
68873;BME280;55907;50.806;12.882;2023-09-19T12:51:49;970.7;;;23.2;40.9
68873;BME280;55907;50.806;12.882;2023-09-19T12:54:50;970.8;;;23.2;41.4
68873;BME280;55907;50.806;12.882;2023-09-19T12:58:00;970.7;;;23.1;41.5
68873;BME280;55907;50.806;12.882;2023-09-19T13:00:53;970.7;;;23.0;42.0
68873;BME280;55907;50.806;12.882;2023-09-19T13:04:12;970.8;;;23.1;42.1
68873;BME280;55907;50.806;12.882;2023-09-19T13:06:56;970.8;;;23.2;39.6
68873;BME280;55907;50.806;12.882;2023-09-19T13:10:05;970.7;;;23.3;38.3
68873;BME280;55907;50.806;12.882;2023-09-19T13:16:01;970.8;;;23.4;37.8
68873;BME280;55907;50.806;12.882;2023-09-19T13:19:01;970.8;;;23.3;38.4
68873;BME280;55907;50.806;12.882;2023-09-19T13:22:03;970.7;;;23.3;38.4
68873;BME280;55907;50.806;12.882;2023-09-19T13:25:05;970.8;;;23.1;39.1
68873;BME280;55907;50.806;12.882;2023-09-19T13:28:05;970.8;;;22.9;39.6
68873;BME280;55907;50.806;12.882;2023-09-19T13:31:09;970.7;;;23.0;40.2
68873;BME280;55907;50.806;12.882;2023-09-19T13:34:08;970.7;;;23.1;40.0
68873;BME280;55907;50.806;12.882;2023-09-19T13:37:10;970.6;;;23.1;38.7
68873;BME280;55907;50.806;12.882;2023-09-19T13:40:13;970.6;;;23.2;38.7
68873;BME280;55907;50.806;12.882;2023-09-19T13:43:12;970.7;;;23.4;38.9
68873;BME280;55907;50.806;12.882;2023-09-19T13:46:14;970.7;;;23.3;38.0
68873;BME280;55907;50.806;12.882;2023-09-19T13:49:15;970.7;;;23.2;38.3
68873;BME280;55907;50.806;12.882;2023-09-19T13:52:17;970.7;;;23.1;38.7
68873;BME280;55907;50.806;12.882;2023-09-19T13:55:18;970.7;;;23.1;38.5
68873;BME280;55907;50.806;12.882;2023-09-19T13:58:19;970.7;;;23.0;39.1
68873;BME280;55907;50.806;12.882;2023-09-19T14:01:21;970.7;;;23.0;39.8
68873;BME280;55907;50.806;12.882;2023-09-19T14:04:22;970.7;;;23.0;39.1
68873;BME280;55907;50.806;12.882;2023-09-19T14:07:24;970.7;;;23.0;38.6
68873;BME280;55907;50.806;12.882;2023-09-19T14:10:25;970.7;;;23.0;37.5
68873;BME280;55907;50.806;12.882;2023-09-19T14:13:26;970.7;;;23.1;37.6
68873;BME280;55907;50.806;12.882;2023-09-19T14:16:28;970.7;;;23.3;37.7
68873;BME280;55907;50.806;12.882;2023-09-19T14:19:30;970.7;;;23.1;37.1
68873;BME280;55907;50.806;12.882;2023-09-19T14:22:31;970.7;;;23.1;37.0
68873;BME280;55907;50.806;12.882;2023-09-19T14:25:34;970.7;;;23.0;36.8
68873;BME280;55907;50.806;12.882;2023-09-19T14:28:33;970.7;;;23.0;36.8
68873;BME280;55907;50.806;12.882;2023-09-19T14:31:37;970.7;;;22.9;37.5
68873;BME280;55907;50.806;12.882;2023-09-19T14:34:36;970.7;;;22.7;37.6
68873;BME280;55907;50.806;12.882;2023-09-19T14:37:37;970.7;;;22.4;38.0
68873;BME280;55907;50.806;12.882;2023-09-19T14:40:39;970.7;;;22.4;37.9
68873;BME280;55907;50.806;12.882;2023-09-19T14:43:40;970.7;;;22.3;37.7
68873;BME280;55907;50.806;12.882;2023-09-19T14:46:42;970.6;;;22.1;37.9
68873;BME280;55907;50.806;12.882;2023-09-19T14:49:43;970.6;;;22.1;38.1
68873;BME280;55907;50.806;12.882;2023-09-19T14:52:45;970.6;;;22.1;38.8
68873;BME280;55907;50.806;12.882;2023-09-19T14:55:46;970.7;;;22.1;38.3
68873;BME280;55907;50.806;12.882;2023-09-19T14:58:47;970.6;;;22.0;38.3
68873;BME280;55907;50.806;12.882;2023-09-19T15:01:49;970.7;;;21.9;38.6
68873;BME280;55907;50.806;12.882;2023-09-19T15:04:51;970.7;;;21.9;38.7
68873;BME280;55907;50.806;12.882;2023-09-19T15:07:52;970.6;;;21.9;38.7
68873;BME280;55907;50.806;12.882;2023-09-19T15:10:53;970.5;;;21.9;38.6
68873;BME280;55907;50.806;12.882;2023-09-19T15:13:54;970.6;;;21.9;39.0
68873;BME280;55907;50.806;12.882;2023-09-19T15:16:56;970.6;;;21.8;38.1
68873;BME280;55907;50.806;12.882;2023-09-19T15:19:57;970.6;;;21.7;37.4
68873;BME280;55907;50.806;12.882;2023-09-19T15:22:59;970.6;;;21.5;37.7
68873;BME280;55907;50.806;12.882;2023-09-19T15:26:01;970.6;;;21.4;37.9
68873;BME280;55907;50.806;12.882;2023-09-19T15:29:01;970.6;;;21.2;38.1
68873;BME280;55907;50.806;12.882;2023-09-19T15:32:03;970.6;;;21.2;37.7
68873;BME280;55907;50.806;12.882;2023-09-19T15:35:04;970.6;;;21.2;37.7
68873;BME280;55907;50.806;12.882;2023-09-19T15:38:06;970.6;;;21.1;36.5
68873;BME280;55907;50.806;12.882;2023-09-19T15:41:11;970.5;;;21.0;36.6
68873;BME280;55907;50.806;12.882;2023-09-19T15:44:13;970.5;;;21.0;37.6
68873;BME280;55907;50.806;12.882;2023-09-19T15:47:10;970.6;;;20.9;36.3
68873;BME280;55907;50.806;12.882;2023-09-19T15:50:11;970.6;;;20.9;36.8
68873;BME280;55907;50.806;12.882;2023-09-19T15:53:13;970.6;;;20.7;36.1
68873;BME280;55907;50.806;12.882;2023-09-19T15:56:15;970.6;;;20.6;36.6
68873;BME280;55907;50.806;12.882;2023-09-19T15:59:16;970.6;;;20.5;37.5
68873;BME280;55907;50.806;12.882;2023-09-19T16:02:17;970.6;;;20.6;38.4
68873;BME280;55907;50.806;12.882;2023-09-19T16:05:19;970.6;;;20.5;38.3
68873;BME280;55907;50.806;12.882;2023-09-19T16:08:20;970.6;;;20.5;38.2
68873;BME280;55907;50.806;12.882;2023-09-19T16:11:22;970.6;;;20.3;38.1
68873;BME280;55907;50.806;12.882;2023-09-19T16:14:23;970.6;;;20.2;38.9
68873;BME280;55907;50.806;12.882;2023-09-19T16:17:24;970.6;;;20.1;38.7
68873;BME280;55907;50.806;12.882;2023-09-19T16:20:26;970.7;;;20.0;39.1
68873;BME280;55907;50.806;12.882;2023-09-19T16:23:27;970.7;;;20.0;39.4
68873;BME280;55907;50.806;12.882;2023-09-19T16:26:29;970.7;;;20.0;40.0
68873;BME280;55907;50.806;12.882;2023-09-19T16:29:30;970.7;;;19.9;40.0
68873;BME280;55907;50.806;12.882;2023-09-19T16:32:31;970.7;;;19.9;40.4
68873;BME280;55907;50.806;12.882;2023-09-19T16:35:36;970.7;;;19.8;40.3
68873;BME280;55907;50.806;12.882;2023-09-19T16:38:35;970.6;;;19.7;41.0
68873;BME280;55907;50.806;12.882;2023-09-19T16:41:36;970.6;;;19.7;41.1
68873;BME280;55907;50.806;12.882;2023-09-19T16:44:37;970.6;;;19.6;41.4
68873;BME280;55907;50.806;12.882;2023-09-19T16:47:39;970.7;;;19.5;41.6
68873;BME280;55907;50.806;12.882;2023-09-19T16:50:40;970.7;;;19.5;41.9
68873;BME280;55907;50.806;12.882;2023-09-19T16:53:42;970.8;;;19.4;42.4
68873;BME280;55907;50.806;12.882;2023-09-19T16:56:43;970.7;;;19.2;43.1
68873;BME280;55907;50.806;12.882;2023-09-19T16:59:45;970.7;;;19.1;43.6
68873;BME280;55907;50.806;12.882;2023-09-19T17:02:46;970.8;;;19.1;44.1
68873;BME280;55907;50.806;12.882;2023-09-19T17:05:47;970.8;;;19.0;44.7
68873;BME280;55907;50.806;12.882;2023-09-19T17:08:50;970.8;;;18.9;45.3
68873;BME280;55907;50.806;12.882;2023-09-19T17:11:50;970.8;;;18.8;45.9
68873;BME280;55907;50.806;12.882;2023-09-19T17:14:52;970.8;;;18.7;46.2
68873;BME280;55907;50.806;12.882;2023-09-19T17:17:53;970.8;;;18.6;47.1
68873;BME280;55907;50.806;12.882;2023-09-19T17:20:55;970.8;;;18.5;47.4
68873;BME280;55907;50.806;12.882;2023-09-19T17:23:56;970.8;;;18.4;47.7
68873;BME280;55907;50.806;12.882;2023-09-19T17:26:58;970.8;;;18.4;48.0